createdAt,value
2023-02-09T00:03:37.325Z,103026.03
2023-02-09T00:08:38.963Z,103036.16
2023-02-09T00:13:40.621Z,103015.81
2023-02-09T00:18:42.202Z,103026.25
2023-02-09T00:23:43.849Z,103019.63
2023-02-09T00:28:45.465Z,103018.09
2023-02-09T00:33:47.390Z,103018.47
2023-02-09T00:38:49.209Z,103009.44
2023-02-09T00:43:50.844Z,103014.59
2023-02-09T00:48:52.463Z,103005.47
2023-02-09T00:53:54.096Z,103004.00
2023-02-09T00:58:55.820Z,103005.75
2023-02-09T01:03:57.537Z,103011.88
2023-02-09T01:09:00.791Z,103006.91
2023-02-09T01:14:04.414Z,102983.34
2023-02-09T01:19:06.079Z,102976.63
2023-02-09T01:24:11.854Z,102985.41
2023-02-09T01:29:16.552Z,102983.56
2023-02-09T01:34:18.974Z,102983.50
2023-02-09T01:39:23.354Z,102983.09
2023-02-09T01:44:24.953Z,102984.13
2023-02-09T01:49:28.157Z,102983.38
2023-02-09T01:54:46.250Z,102987.13
2023-02-09T01:59:53.328Z,102975.75
2023-02-09T02:04:55.337Z,102968.03
2023-02-09T02:09:57.293Z,102957.13
2023-02-09T02:14:58.953Z,102945.47
2023-02-09T02:20:33.650Z,102945.34
2023-02-09T02:25:41.265Z,102945.47
2023-02-09T02:31:05.063Z,102936.53
2023-02-09T02:36:31.505Z,102929.47
2023-02-09T02:42:01.805Z,102923.25
2023-02-09T02:47:07.144Z,102917.75
2023-02-09T02:52:10.934Z,102919.38
2023-02-09T02:57:17.097Z,102916.50
2023-02-09T03:02:26.305Z,102909.41
2023-02-09T03:07:27.984Z,102892.53
2023-02-09T03:12:52.340Z,102894.50
2023-02-09T03:18:20.524Z,102884.19
2023-02-09T03:23:31.842Z,102887.31
2023-02-09T03:28:35.890Z,102882.56
2023-02-09T03:33:39.497Z,102863.22
2023-02-09T03:38:41.182Z,102861.97
2023-02-09T03:44:01.345Z,102861.56
2023-02-09T03:49:02.921Z,102860.91
2023-02-09T03:54:04.567Z,102848.84
2023-02-09T03:59:06.515Z,102841.50
2023-02-09T04:04:08.719Z,102838.69
2023-02-09T04:09:11.388Z,102841.97
2023-02-09T04:14:13.828Z,102840.94
2023-02-09T04:19:15.814Z,102850.13
2023-02-09T04:24:17.472Z,102860.84
2023-02-09T04:29:19.112Z,102862.38
2023-02-09T04:34:22.883Z,102872.00
2023-02-09T04:39:24.481Z,102879.16
2023-02-09T04:44:26.113Z,102883.25
2023-02-09T04:49:27.710Z,102884.75
2023-02-09T04:54:29.374Z,102874.94
2023-02-09T04:59:39.095Z,102892.81
2023-02-09T05:04:40.745Z,102895.44
2023-02-09T05:09:42.437Z,102889.75
2023-02-09T05:14:44.029Z,102891.31
2023-02-09T05:19:45.624Z,102897.28
2023-02-09T05:24:47.310Z,102888.09
2023-02-09T05:29:48.966Z,102899.44
2023-02-09T05:34:50.698Z,102897.41
2023-02-09T05:39:52.906Z,102910.16
2023-02-09T05:44:54.567Z,102909.13
2023-02-09T05:49:56.287Z,102910.91
2023-02-09T05:54:57.905Z,102904.03
2023-02-09T05:59:59.518Z,102903.13
2023-02-09T06:05:01.131Z,102909.06
2023-02-09T06:10:02.716Z,102898.16
2023-02-09T06:15:05.078Z,102898.50
2023-02-09T06:20:07.109Z,102906.03
2023-02-09T06:25:08.735Z,102905.22
2023-02-09T06:30:11.198Z,102907.78
2023-02-09T06:35:12.826Z,102911.91
2023-02-09T06:40:14.490Z,102906.41
2023-02-09T06:45:17.532Z,102900.47
2023-02-09T06:50:19.479Z,102910.44
2023-02-09T06:55:21.298Z,102907.31
2023-02-09T07:00:23.137Z,102914.84
2023-02-09T07:05:25.561Z,102920.94
2023-02-09T07:10:27.216Z,102932.41
2023-02-09T07:15:28.858Z,102925.34
2023-02-09T07:20:30.429Z,102936.06
2023-02-09T07:25:32.221Z,102927.31
2023-02-09T07:30:33.989Z,102934.03
2023-02-09T07:35:39.714Z,102932.81
2023-02-09T07:40:46.452Z,102943.16
2023-02-09T07:45:48.342Z,102944.53
2023-02-09T07:50:51.113Z,102954.28
2023-02-09T07:55:53.170Z,102944.81
2023-02-09T08:00:54.785Z,102946.69
2023-02-09T08:06:02.363Z,102945.97
2023-02-09T08:11:05.490Z,102955.72
2023-02-09T08:16:15.023Z,102935.00
2023-02-09T08:21:18.350Z,102927.94
2023-02-09T08:26:20.221Z,102947.78
2023-02-09T08:31:22.568Z,102952.91
2023-02-09T08:36:24.248Z,102948.78
2023-02-09T08:41:25.840Z,102955.13
2023-02-09T08:46:27.749Z,102953.34
2023-02-09T08:51:29.470Z,102943.31
2023-02-09T08:56:31.085Z,102939.09
2023-02-09T09:01:32.786Z,102952.44
2023-02-09T09:06:34.493Z,102959.66
2023-02-09T09:11:36.792Z,102969.94
2023-02-09T09:16:38.590Z,102950.41
2023-02-09T09:21:40.265Z,102977.66
2023-02-09T09:26:42.001Z,102972.28
2023-02-09T09:31:43.900Z,102969.28
2023-02-09T09:36:45.603Z,102953.03
2023-02-09T09:41:49.322Z,102954.78
2023-02-09T09:46:53.322Z,102968.50
2023-02-09T09:52:11.482Z,102970.91
2023-02-09T09:57:27.409Z,102964.44
2023-02-09T10:02:32.296Z,102962.22
2023-02-09T10:07:34.624Z,102974.78
2023-02-09T10:12:39.507Z,102985.75
2023-02-09T10:17:41.106Z,102991.03
2023-02-09T10:22:45.870Z,102992.78
2023-02-09T10:27:47.516Z,103002.75
2023-02-09T10:32:49.213Z,102998.78
2023-02-09T10:37:59.081Z,103008.59
2023-02-09T10:43:04.145Z,103004.25
2023-02-09T10:48:11.972Z,103003.16
2023-02-09T10:53:26.793Z,103005.72
2023-02-09T10:58:32.740Z,102999.91
2023-02-09T11:03:35.408Z,103006.88
2023-02-09T11:08:52.294Z,102998.66
2023-02-09T11:13:54.369Z,102996.47
2023-02-09T11:19:06.460Z,102989.63
2023-02-09T11:24:35.620Z,103008.44
2023-02-09T11:29:43.469Z,102996.91
2023-02-09T11:35:00.697Z,102993.72
2023-02-09T11:40:39.843Z,102998.97
2023-02-09T11:45:50.342Z,102985.03
2023-02-09T11:51:00.910Z,102994.53
2023-02-09T11:56:07.968Z,102985.06
2023-02-09T12:01:20.610Z,102989.66
2023-02-09T12:06:24.587Z,102990.34
2023-02-09T12:11:41.987Z,102983.94
2023-02-09T12:16:50.388Z,102977.50
2023-02-09T12:21:52.098Z,102972.09
2023-02-09T12:26:57.535Z,102973.81
2023-02-09T12:32:06.214Z,102972.66
2023-02-09T12:37:14.473Z,102981.63
2023-02-09T12:42:16.066Z,102981.63
2023-02-09T12:47:41.383Z,102990.69
2023-02-09T12:53:21.547Z,102981.34
2023-02-09T12:58:44.988Z,102991.00
2023-02-09T13:04:05.249Z,102985.34
2023-02-09T13:09:13.523Z,102978.00
2023-02-09T13:14:16.640Z,102979.69
2023-02-09T13:20:02.331Z,102982.13
2023-02-09T13:25:32.345Z,102972.97
2023-02-09T13:30:34.117Z,102979.97
2023-02-09T13:35:46.705Z,102975.84
2023-02-09T13:40:50.405Z,102975.69
2023-02-09T13:45:54.667Z,102978.41
2023-02-09T13:50:59.271Z,102984.66
2023-02-09T14:02:39.003Z,102998.72
2023-02-09T14:07:40.714Z,102998.31
2023-02-09T14:12:51.235Z,103000.03
2023-02-09T14:17:55.294Z,103001.41
2023-02-09T14:23:00.602Z,103008.03
2023-02-09T14:28:02.453Z,103003.03
2023-02-09T14:33:04.298Z,103021.13
2023-02-09T14:38:06.058Z,103029.59
2023-02-09T14:43:10.624Z,103036.94
2023-02-09T14:48:23.503Z,103030.69
2023-02-09T14:53:29.707Z,103033.44
2023-02-09T14:58:33.745Z,103033.34
2023-02-09T15:03:35.398Z,103040.00
2023-02-09T15:08:38.941Z,103039.88
2023-02-09T15:13:40.795Z,103044.97
2023-02-09T15:18:42.591Z,103047.69
2023-02-09T15:23:44.213Z,103055.59
2023-02-09T15:28:46.072Z,103059.97
2023-02-09T15:33:47.832Z,103052.38
2023-02-09T15:38:49.543Z,103056.06
2023-02-09T15:44:09.620Z,103066.13
2023-02-09T15:49:11.241Z,103064.97
2023-02-09T15:54:18.761Z,103076.47
2023-02-09T15:59:24.545Z,103078.72
2023-02-09T16:04:26.300Z,103081.69
2023-02-09T16:09:29.017Z,103090.28
2023-02-09T16:14:31.661Z,103105.78
2023-02-09T16:19:33.671Z,103110.19
2023-02-09T16:24:46.514Z,103126.72
2023-02-09T16:29:48.221Z,103130.13
2023-02-09T16:34:50.502Z,103140.41
2023-02-09T16:39:52.865Z,103145.97
2023-02-09T16:44:54.516Z,103148.00
2023-02-09T16:50:02.842Z,103162.78
2023-02-09T16:55:07.028Z,103178.22
2023-02-09T17:00:09.455Z,103180.28
2023-02-09T17:05:29.346Z,103183.19
2023-02-09T17:10:34.143Z,103188.00
2023-02-09T17:15:47.231Z,103193.66
2023-02-09T17:20:55.964Z,103207.53
2023-02-09T17:25:58.301Z,103211.41
2023-02-09T17:31:02.175Z,103207.22
2023-02-09T17:36:25.227Z,103203.88
2023-02-09T17:41:33.994Z,103210.34
2023-02-09T17:46:35.740Z,103216.84
2023-02-09T17:51:40.459Z,103221.47
2023-02-09T17:56:43.424Z,103230.72
2023-02-09T18:01:49.587Z,103230.13
2023-02-09T18:06:51.318Z,103239.59
2023-02-09T18:12:03.999Z,103247.09
2023-02-09T18:17:05.739Z,103256.63
2023-02-09T18:22:07.441Z,103246.06
2023-02-09T18:27:14.790Z,103253.69
2023-02-09T18:32:17.119Z,103263.13
2023-02-09T18:37:18.817Z,103273.44
2023-02-09T18:42:20.441Z,103270.09
2023-02-09T18:47:22.200Z,103283.31
2023-02-09T18:52:25.320Z,103289.81
2023-02-09T18:57:27.093Z,103299.81
2023-02-09T19:02:28.791Z,103292.66
2023-02-09T19:07:32.458Z,103291.97
2023-02-09T19:12:34.206Z,103293.91
2023-02-09T19:17:35.979Z,103296.00
2023-02-09T19:22:38.366Z,103300.81
2023-02-09T19:27:40.321Z,103302.75
2023-02-09T19:32:42.073Z,103304.25
2023-02-09T19:37:43.923Z,103314.38
2023-02-09T19:42:45.566Z,103315.41
2023-02-09T19:47:47.202Z,103315.53
2023-02-09T19:52:50.336Z,103321.13
2023-02-09T19:57:52.088Z,103331.19
2023-02-09T20:02:53.856Z,103332.41
2023-02-09T20:07:55.761Z,103349.75
2023-02-09T20:12:57.487Z,103347.34
2023-02-09T20:17:59.205Z,103356.34
2023-02-09T20:23:00.915Z,103354.72
2023-02-09T20:28:02.956Z,103352.91
2023-02-09T20:33:04.618Z,103358.38
2023-02-09T20:38:06.427Z,103361.31
2023-02-09T20:43:27.836Z,103360.53
2023-02-09T20:48:29.487Z,103362.31
2023-02-09T20:53:43.877Z,103373.56
2023-02-09T20:58:45.899Z,103371.16
2023-02-09T21:03:54.475Z,103380.28
2023-02-09T21:09:06.237Z,103378.88
2023-02-09T21:14:13.479Z,103390.66
2023-02-09T21:19:24.511Z,103392.50
2023-02-09T21:24:26.420Z,103393.56
2023-02-09T21:29:29.302Z,103395.63
2023-02-09T21:34:31.039Z,103399.50
2023-02-09T21:39:32.704Z,103401.97
2023-02-09T21:44:37.807Z,103411.28
2023-02-09T21:49:39.431Z,103402.22
2023-02-09T21:54:41.086Z,103393.47
2023-02-09T21:59:42.961Z,103395.97
2023-02-09T22:04:46.594Z,103400.84
2023-02-09T22:09:48.243Z,103401.97
2023-02-09T22:14:49.833Z,103389.28
2023-02-09T22:19:51.466Z,103385.63
2023-02-09T22:24:53.123Z,103389.47
2023-02-09T22:29:54.688Z,103391.13
2023-02-09T22:34:56.272Z,103385.94
2023-02-09T22:39:57.979Z,103389.47
2023-02-09T22:44:59.630Z,103387.69
2023-02-09T22:50:01.490Z,103385.13
2023-02-09T22:55:03.187Z,103397.78
2023-02-09T23:00:07.668Z,103409.69
2023-02-09T23:05:28.060Z,103400.03
2023-02-09T23:10:30.721Z,103398.91
2023-02-09T23:15:32.354Z,103401.94
2023-02-09T23:20:33.983Z,103402.09
2023-02-09T23:25:35.611Z,103404.91
2023-02-09T23:30:37.690Z,103397.94
2023-02-09T23:35:39.969Z,103403.38
2023-02-09T23:40:41.642Z,103413.16
2023-02-09T23:45:43.245Z,103410.81
2023-02-09T23:50:44.948Z,103398.22
2023-02-09T23:55:51.501Z,103387.16
